createdAt,value
2022-08-28T00:01:00.500Z,1
2022-08-28T00:02:43.893Z,1
2022-08-28T00:07:53.150Z,1
2022-08-28T00:09:36.543Z,2
2022-08-28T00:11:19.934Z,1
2022-08-28T00:13:03.341Z,1
2022-08-28T00:14:46.735Z,1
2022-08-28T00:16:30.121Z,0
2022-08-28T00:18:13.531Z,1
2022-08-28T00:19:56.924Z,1
2022-08-28T00:25:06.151Z,1
2022-08-28T00:26:49.559Z,1
2022-08-28T00:28:32.948Z,1
2022-08-28T00:30:16.350Z,1
2022-08-28T00:31:59.767Z,1
2022-08-28T00:33:43.149Z,1
2022-08-28T00:35:26.536Z,0
2022-08-28T00:37:09.936Z,1
2022-08-28T00:42:19.180Z,1
2022-08-28T00:44:02.583Z,0
2022-08-28T00:45:45.969Z,1
2022-08-28T00:47:29.372Z,1
2022-08-28T00:49:12.784Z,1
2022-08-28T00:50:56.171Z,0
2022-08-28T00:52:39.571Z,1
2022-08-28T00:54:22.965Z,1
2022-08-28T00:59:32.198Z,0
2022-08-28T01:01:15.606Z,0
2022-08-28T01:02:59.000Z,1
2022-08-28T01:04:42.398Z,1
2022-08-28T01:06:25.791Z,1
2022-08-28T01:08:09.193Z,1
2022-08-28T01:09:52.582Z,1
2022-08-28T01:11:35.997Z,1
2022-08-28T01:13:19.384Z,1
2022-08-28T01:16:45.855Z,1
2022-08-28T01:18:29.245Z,1
2022-08-28T01:20:12.657Z,0
2022-08-28T01:21:56.047Z,1
2022-08-28T01:23:39.438Z,0
2022-08-28T01:25:22.850Z,0
2022-08-28T01:27:06.230Z,1
2022-08-28T01:28:49.633Z,1
2022-08-28T01:33:58.876Z,1
2022-08-28T01:35:42.283Z,1
2022-08-28T01:37:25.673Z,1
2022-08-28T01:39:09.057Z,1
2022-08-28T01:40:52.454Z,1
2022-08-28T01:42:35.870Z,1
2022-08-28T01:44:19.261Z,1
2022-08-28T01:46:02.654Z,1
2022-08-28T01:51:11.896Z,1
2022-08-28T01:52:55.286Z,1
2022-08-28T01:54:38.688Z,1
2022-08-28T01:56:22.099Z,1
2022-08-28T01:58:05.486Z,1
2022-08-28T01:59:48.890Z,1
2022-08-28T02:01:32.282Z,1
2022-08-28T02:03:15.677Z,1
2022-08-28T02:08:24.911Z,1
2022-08-28T02:10:08.322Z,1
2022-08-28T02:11:51.718Z,1
2022-08-28T02:13:35.111Z,1
2022-08-28T02:15:18.495Z,1
2022-08-28T02:17:01.905Z,1
2022-08-28T02:18:45.300Z,0
2022-08-28T02:20:28.695Z,1
2022-08-28T02:23:55.175Z,1
2022-08-28T02:25:38.568Z,1
2022-08-28T02:27:21.967Z,0
2022-08-28T02:29:05.364Z,1
2022-08-28T02:30:48.753Z,1
2022-08-28T02:32:32.159Z,1
2022-08-28T02:34:15.556Z,1
2022-08-28T02:35:58.946Z,1
2022-08-28T02:41:08.184Z,0
2022-08-28T02:42:51.588Z,1
2022-08-28T02:44:34.979Z,1
2022-08-28T02:46:18.390Z,1
2022-08-28T02:48:01.767Z,1
2022-08-28T02:49:45.177Z,1
2022-08-28T02:51:28.577Z,1
2022-08-28T02:53:11.957Z,1
2022-08-28T02:56:38.438Z,1
2022-08-28T02:58:21.830Z,1
2022-08-28T03:00:05.229Z,1
2022-08-28T03:01:48.635Z,0
2022-08-28T03:03:32.016Z,1
2022-08-28T03:05:15.424Z,1
2022-08-28T03:06:58.823Z,1
2022-08-28T03:08:42.211Z,1
2022-08-28T03:12:08.688Z,1
2022-08-28T03:13:52.089Z,0
2022-08-28T03:15:35.482Z,1
2022-08-28T03:17:18.879Z,1
2022-08-28T03:19:02.273Z,1
2022-08-28T03:20:45.691Z,2
2022-08-28T03:22:29.068Z,1
2022-08-28T03:24:12.471Z,1
2022-08-28T03:29:21.731Z,1
2022-08-28T03:31:05.099Z,1
2022-08-28T03:32:48.502Z,1
2022-08-28T03:34:31.899Z,0
2022-08-28T03:36:15.298Z,0
2022-08-28T03:37:58.700Z,0
2022-08-28T03:39:42.083Z,1
2022-08-28T03:41:25.481Z,1
2022-08-28T03:44:52.202Z,1
2022-08-28T03:46:35.355Z,1
2022-08-28T03:48:18.763Z,1
2022-08-28T03:50:02.161Z,1
2022-08-28T03:51:45.551Z,1
2022-08-28T03:53:28.950Z,1
2022-08-28T03:55:12.342Z,1
2022-08-28T03:56:55.740Z,1
2022-08-28T04:02:05.007Z,1
2022-08-28T04:03:48.407Z,1
2022-08-28T04:05:31.774Z,1
2022-08-28T04:07:15.209Z,1
2022-08-28T04:08:58.567Z,1
2022-08-28T04:10:41.959Z,1
2022-08-28T04:12:25.355Z,1
2022-08-28T04:14:08.772Z,2
2022-08-28T04:19:18.005Z,1
2022-08-28T04:21:01.401Z,1
2022-08-28T04:22:44.804Z,1
2022-08-28T04:24:28.190Z,1
2022-08-28T04:26:11.590Z,1
2022-08-28T04:27:55.017Z,1
2022-08-28T04:29:38.391Z,1
2022-08-28T04:31:21.777Z,1
2022-08-28T04:36:31.027Z,2
2022-08-28T04:38:14.428Z,2
2022-08-28T04:39:57.827Z,1
2022-08-28T04:41:41.214Z,2
2022-08-28T04:43:24.611Z,2
2022-08-28T04:45:08.007Z,2
2022-08-28T04:46:51.426Z,1
2022-08-28T04:48:34.815Z,2
2022-08-28T04:53:44.053Z,3
2022-08-28T04:55:27.455Z,2
2022-08-28T04:57:10.856Z,3
2022-08-28T04:58:54.247Z,3
2022-08-28T05:00:37.648Z,4
2022-08-28T05:02:21.034Z,4
2022-08-28T05:04:04.446Z,4
2022-08-28T05:05:47.834Z,5
2022-08-28T05:10:57.067Z,17
2022-08-28T05:12:40.466Z,19
2022-08-28T05:14:23.871Z,22
2022-08-28T05:16:07.258Z,25
2022-08-28T05:17:50.664Z,28
2022-08-28T05:19:34.064Z,31
2022-08-28T05:21:17.452Z,33
2022-08-28T05:23:00.846Z,34
2022-08-28T05:26:27.313Z,39
2022-08-28T05:28:10.728Z,40
2022-08-28T05:29:54.111Z,40
2022-08-28T05:31:37.517Z,41
2022-08-28T05:33:20.921Z,42
2022-08-28T05:35:04.309Z,43
2022-08-28T05:36:47.698Z,45
2022-08-28T05:38:31.100Z,48
2022-08-28T05:43:40.351Z,51
2022-08-28T05:45:23.734Z,52
2022-08-28T05:47:07.130Z,52
2022-08-28T05:48:50.538Z,53
2022-08-28T05:50:33.929Z,55
2022-08-28T05:52:17.328Z,57
2022-08-28T05:54:00.729Z,60
2022-08-28T05:55:44.127Z,64
2022-08-28T05:59:10.589Z,70
2022-08-28T06:00:53.991Z,72
2022-08-28T06:02:37.381Z,74
2022-08-28T06:04:20.789Z,77
2022-08-28T06:06:04.187Z,80
2022-08-28T06:07:47.565Z,83
2022-08-28T06:09:30.967Z,87
2022-08-28T06:11:14.386Z,90
2022-08-28T06:14:40.841Z,93
2022-08-28T06:16:24.238Z,98
2022-08-28T06:18:07.641Z,104
2022-08-28T06:19:51.035Z,110
2022-08-28T06:21:34.440Z,116
2022-08-28T06:23:17.865Z,123
2022-08-28T06:25:01.223Z,131
2022-08-28T06:26:44.625Z,137
2022-08-28T06:28:28.012Z,139
2022-08-28T06:31:54.528Z,136
2022-08-28T06:33:37.890Z,133
2022-08-28T06:35:21.280Z,127
2022-08-28T06:37:04.693Z,120
2022-08-28T06:38:48.067Z,114
2022-08-28T06:40:31.476Z,111
2022-08-28T06:42:14.862Z,106
2022-08-28T06:43:58.260Z,105
2022-08-28T06:49:07.511Z,110
2022-08-28T06:50:50.913Z,107
2022-08-28T06:52:34.307Z,101
2022-08-28T06:54:17.706Z,95
2022-08-28T06:56:01.086Z,91
2022-08-28T06:57:44.485Z,92
2022-08-28T06:59:27.930Z,94
2022-08-28T07:01:11.283Z,94
2022-08-28T07:06:20.533Z,112
2022-08-28T07:08:03.920Z,122
2022-08-28T07:09:47.330Z,126
2022-08-28T07:11:30.723Z,124
2022-08-28T07:13:14.129Z,121
2022-08-28T07:14:57.515Z,113
2022-08-28T07:16:40.901Z,337
2022-08-28T07:18:24.296Z,319
2022-08-28T07:23:33.556Z,310
2022-08-28T07:25:16.937Z,327
2022-08-28T07:27:00.341Z,342
2022-08-28T07:28:43.737Z,342
2022-08-28T07:30:27.138Z,342
2022-08-28T07:32:10.523Z,351
2022-08-28T07:33:53.933Z,360
2022-08-28T07:35:37.329Z,370
2022-08-28T07:39:03.801Z,407
2022-08-28T07:40:47.185Z,416
2022-08-28T07:42:30.594Z,411
2022-08-28T07:44:13.988Z,407
2022-08-28T07:45:57.376Z,416
2022-08-28T07:47:40.798Z,443
2022-08-28T07:49:24.182Z,469
2022-08-28T07:51:07.585Z,484
2022-08-28T07:54:34.050Z,621
2022-08-28T07:56:17.443Z,660
2022-08-28T07:58:00.855Z,662
2022-08-28T07:59:44.239Z,695
2022-08-28T08:01:27.645Z,667
2022-08-28T08:03:11.035Z,651
2022-08-28T08:04:54.438Z,646
2022-08-28T08:06:37.829Z,635
2022-08-28T08:10:04.307Z,669
2022-08-28T08:11:47.713Z,686
2022-08-28T08:13:31.101Z,691
2022-08-28T08:15:14.506Z,706
2022-08-28T08:16:57.900Z,703
2022-08-28T08:18:41.290Z,705
2022-08-28T08:20:24.673Z,748
2022-08-28T08:22:08.089Z,781
2022-08-28T08:25:34.559Z,781
2022-08-28T08:27:17.947Z,781
2022-08-28T08:29:01.351Z,781
2022-08-28T08:30:44.752Z,780
2022-08-28T08:32:28.126Z,781
2022-08-28T08:34:11.543Z,782
2022-08-28T08:35:54.929Z,781
2022-08-28T08:37:38.334Z,782
2022-08-28T08:39:21.715Z,771
2022-08-28T08:41:05.422Z,781
2022-08-28T08:42:48.827Z,780
2022-08-28T08:44:32.223Z,780
2022-08-28T08:46:15.610Z,780
2022-08-28T08:47:59.021Z,781
2022-08-28T08:49:42.410Z,781
2022-08-28T08:51:25.808Z,781
2022-08-28T08:53:09.201Z,780
2022-08-28T08:58:18.448Z,780
2022-08-28T09:00:01.858Z,781
2022-08-28T09:01:45.242Z,781
2022-08-28T09:03:28.635Z,781
2022-08-28T09:05:12.036Z,781
2022-08-28T09:06:55.420Z,781
2022-08-28T09:08:38.810Z,781
2022-08-28T09:10:22.208Z,782
2022-08-28T09:12:05.618Z,771
2022-08-28T09:13:49.316Z,781
2022-08-28T09:15:32.713Z,781
2022-08-28T09:17:16.118Z,781
2022-08-28T09:18:59.530Z,781
2022-08-28T09:20:42.906Z,781
2022-08-28T09:22:26.299Z,781
2022-08-28T09:24:09.703Z,781
2022-08-28T09:25:53.086Z,781
2022-08-28T09:31:02.325Z,781
2022-08-28T09:32:45.757Z,781
2022-08-28T09:34:29.134Z,782
2022-08-28T09:36:12.524Z,781
2022-08-28T09:37:55.935Z,781
2022-08-28T09:39:39.307Z,782
2022-08-28T09:41:22.715Z,781
2022-08-28T09:43:06.107Z,782
2022-08-28T09:44:49.509Z,771
2022-08-28T09:46:33.202Z,781
2022-08-28T09:48:16.602Z,781
2022-08-28T09:50:00.016Z,782
2022-08-28T09:51:43.394Z,781
2022-08-28T09:53:26.810Z,781
2022-08-28T09:55:10.187Z,710
2022-08-28T09:56:53.591Z,781
2022-08-28T09:58:36.988Z,781
2022-08-28T10:03:46.218Z,782
2022-08-28T10:05:29.624Z,782
2022-08-28T10:07:13.027Z,781
2022-08-28T10:08:56.419Z,782
2022-08-28T10:10:39.813Z,781
2022-08-28T10:12:23.206Z,781
2022-08-28T10:14:06.618Z,782
2022-08-28T10:15:50.004Z,782
2022-08-28T10:20:59.250Z,782
2022-08-28T10:22:42.661Z,781
2022-08-28T10:24:26.039Z,782
2022-08-28T10:26:09.439Z,782
2022-08-28T10:27:52.831Z,782
2022-08-28T10:29:36.234Z,782
2022-08-28T10:31:19.614Z,782
2022-08-28T10:33:03.028Z,782
2022-08-28T10:38:12.260Z,782
2022-08-28T10:39:55.673Z,782
2022-08-28T10:41:39.124Z,781
2022-08-28T10:43:22.461Z,782
2022-08-28T10:45:05.838Z,782
2022-08-28T10:46:49.234Z,782
2022-08-28T10:48:32.639Z,782
2022-08-28T10:50:16.043Z,782
2022-08-28T10:53:42.515Z,782
2022-08-28T10:55:25.920Z,781
2022-08-28T10:57:09.301Z,782
2022-08-28T10:58:52.697Z,782
2022-08-28T11:00:36.103Z,781
2022-08-28T11:02:19.504Z,782
2022-08-28T11:04:02.899Z,782
2022-08-28T11:05:46.291Z,781
2022-08-28T11:09:12.761Z,781
2022-08-28T11:10:56.409Z,782
2022-08-28T11:12:39.557Z,782
2022-08-28T11:14:22.956Z,782
2022-08-28T11:16:06.352Z,782
2022-08-28T11:17:49.745Z,781
2022-08-28T11:19:33.140Z,782
2022-08-28T11:21:16.550Z,782
2022-08-28T11:24:43.031Z,781
2022-08-28T11:26:26.402Z,782
2022-08-28T11:28:09.804Z,782
2022-08-28T11:29:53.196Z,782
2022-08-28T11:31:36.626Z,781
2022-08-28T11:33:19.991Z,781
2022-08-28T11:35:03.388Z,782
2022-08-28T11:36:46.796Z,783
2022-08-28T11:41:56.033Z,782
2022-08-28T11:43:39.433Z,783
2022-08-28T11:45:22.833Z,782
2022-08-28T11:48:49.630Z,782
2022-08-28T11:50:33.015Z,782
2022-08-28T11:52:16.431Z,781
2022-08-28T11:53:59.817Z,782
2022-08-28T11:57:26.298Z,782
2022-08-28T11:59:09.689Z,782
2022-08-28T12:00:53.080Z,781
2022-08-28T12:02:36.470Z,783
2022-08-28T12:04:19.893Z,782
2022-08-28T12:06:03.292Z,782
2022-08-28T12:07:46.671Z,782
2022-08-28T12:09:30.089Z,782
2022-08-28T12:12:56.548Z,783
2022-08-28T12:14:39.933Z,782
2022-08-28T12:16:23.345Z,782
2022-08-28T12:18:06.751Z,783
2022-08-28T12:19:50.129Z,782
2022-08-28T12:21:33.529Z,782
2022-08-28T12:23:16.925Z,782
2022-08-28T12:25:00.324Z,771
2022-08-28T12:26:44.029Z,782
2022-08-28T12:28:27.422Z,782
2022-08-28T12:30:10.811Z,782
2022-08-28T12:31:54.211Z,782
2022-08-28T12:33:37.617Z,782
2022-08-28T12:35:21.005Z,782
2022-08-28T12:37:04.401Z,782
2022-08-28T12:38:47.815Z,782
2022-08-28T12:42:14.282Z,783
2022-08-28T12:43:57.667Z,782
2022-08-28T12:45:41.079Z,783
2022-08-28T12:47:24.492Z,782
2022-08-28T12:49:07.854Z,777
2022-08-28T12:50:51.268Z,760
2022-08-28T12:52:34.645Z,746
2022-08-28T12:54:18.042Z,782
2022-08-28T12:57:44.534Z,783
2022-08-28T12:59:27.933Z,777
2022-08-28T13:01:11.317Z,779
2022-08-28T13:02:54.717Z,782
2022-08-28T13:04:38.121Z,782
2022-08-28T13:06:21.511Z,782
2022-08-28T13:08:04.914Z,782
2022-08-28T13:09:48.297Z,780
2022-08-28T13:13:14.799Z,782
2022-08-28T13:14:58.193Z,782
2022-08-28T13:16:41.599Z,783
2022-08-28T13:18:24.978Z,782
2022-08-28T13:20:08.371Z,781
2022-08-28T13:21:51.771Z,782
2022-08-28T13:23:35.163Z,737
2022-08-28T13:25:18.575Z,741
2022-08-28T13:28:45.049Z,700
2022-08-28T13:30:28.424Z,782
2022-08-28T13:32:11.821Z,652
2022-08-28T13:33:55.240Z,630
2022-08-28T13:35:38.619Z,567
2022-08-28T13:37:22.019Z,550
2022-08-28T13:39:05.432Z,563
2022-08-28T13:40:48.829Z,563
2022-08-28T13:42:32.530Z,586
2022-08-28T13:44:15.923Z,646
2022-08-28T13:45:59.313Z,685
2022-08-28T13:47:42.720Z,722
2022-08-28T13:49:26.106Z,782
2022-08-28T13:51:09.509Z,783
2022-08-28T13:52:52.890Z,782
2022-08-28T13:54:36.286Z,782
2022-08-28T13:58:02.754Z,782
2022-08-28T13:59:46.159Z,782
2022-08-28T14:01:29.568Z,782
2022-08-28T14:03:12.961Z,782
2022-08-28T14:04:56.363Z,782
2022-08-28T14:06:39.740Z,782
2022-08-28T14:08:23.143Z,782
2022-08-28T14:10:06.543Z,782
2022-08-28T14:13:33.023Z,782
2022-08-28T14:15:16.419Z,782
2022-08-28T14:16:59.800Z,782
2022-08-28T14:18:43.213Z,782
2022-08-28T14:20:26.612Z,782
2022-08-28T14:22:09.984Z,782
2022-08-28T14:23:53.387Z,782
2022-08-28T14:25:36.814Z,782
2022-08-28T14:29:03.259Z,782
2022-08-28T14:30:46.649Z,617
2022-08-28T14:32:30.058Z,598
2022-08-28T14:34:13.462Z,782
2022-08-28T14:35:56.855Z,572
2022-08-28T14:37:40.263Z,782
2022-08-28T14:39:23.649Z,782
2022-08-28T14:41:07.045Z,471
2022-08-28T14:44:33.515Z,513
2022-08-28T14:46:16.913Z,673
2022-08-28T14:48:00.317Z,570
2022-08-28T14:49:43.708Z,473
2022-08-28T14:51:27.104Z,497
2022-08-28T14:53:10.498Z,525
2022-08-28T14:54:53.887Z,568
2022-08-28T14:56:37.286Z,522
2022-08-28T15:01:46.547Z,568
2022-08-28T15:03:29.923Z,670
2022-08-28T15:05:13.312Z,782
2022-08-28T15:06:56.728Z,782
2022-08-28T15:08:40.125Z,782
2022-08-28T15:10:23.503Z,782
2022-08-28T15:12:06.896Z,782
2022-08-28T15:13:50.297Z,777
2022-08-28T15:15:33.999Z,782
2022-08-28T15:17:17.407Z,783
2022-08-28T15:19:00.806Z,782
2022-08-28T15:20:44.205Z,782
2022-08-28T15:22:27.585Z,782
2022-08-28T15:24:10.996Z,783
2022-08-28T15:25:54.387Z,783
2022-08-28T15:27:37.780Z,782
2022-08-28T15:31:04.267Z,783
2022-08-28T15:32:47.646Z,782
2022-08-28T15:34:31.052Z,783
2022-08-28T15:36:14.442Z,782
2022-08-28T15:37:57.842Z,783
2022-08-28T15:39:41.226Z,782
2022-08-28T15:41:24.623Z,782
2022-08-28T15:43:08.011Z,782
2022-08-28T15:46:34.505Z,463
2022-08-28T15:48:17.901Z,403
2022-08-28T15:50:01.287Z,386
2022-08-28T15:51:44.694Z,387
2022-08-28T15:53:28.070Z,363
2022-08-28T15:55:11.473Z,373
2022-08-28T15:56:54.879Z,374
2022-08-28T15:58:38.280Z,373
2022-08-28T16:02:04.744Z,437
2022-08-28T16:03:48.160Z,467
2022-08-28T16:08:58.327Z,505
2022-08-28T16:10:41.734Z,783
2022-08-28T16:12:25.111Z,782
2022-08-28T16:14:08.514Z,782
2022-08-28T16:19:17.755Z,784
2022-08-28T16:21:01.158Z,784
2022-08-28T16:22:44.540Z,785
2022-08-28T16:24:27.959Z,670
2022-08-28T16:26:11.334Z,784
2022-08-28T16:27:54.777Z,783
2022-08-28T16:29:38.146Z,783
2022-08-28T16:31:21.559Z,494
2022-08-28T16:36:30.788Z,373
2022-08-28T16:38:14.175Z,339
2022-08-28T16:39:57.573Z,325
2022-08-28T16:41:40.959Z,305
2022-08-28T16:43:24.372Z,285
2022-08-28T16:45:07.754Z,269
2022-08-28T16:46:51.141Z,262
2022-08-28T16:48:34.542Z,239
2022-08-28T16:52:01.022Z,221
2022-08-28T16:53:44.416Z,218
2022-08-28T16:55:27.816Z,214
2022-08-28T16:57:11.212Z,206
2022-08-28T16:58:54.607Z,191
2022-08-28T17:00:38.003Z,190
2022-08-28T17:02:21.409Z,198
2022-08-28T17:04:04.797Z,211
2022-08-28T17:07:31.261Z,219
2022-08-28T17:09:14.656Z,215
2022-08-28T17:10:58.046Z,213
2022-08-28T17:12:41.468Z,215
2022-08-28T17:14:24.860Z,210
2022-08-28T17:16:08.238Z,209
2022-08-28T17:17:51.669Z,206
2022-08-28T17:19:35.043Z,200
2022-08-28T17:23:01.515Z,206
2022-08-28T17:24:44.913Z,220
2022-08-28T17:26:28.344Z,246
2022-08-28T17:28:11.697Z,263
2022-08-28T17:29:55.084Z,276
2022-08-28T17:31:38.498Z,285
2022-08-28T17:33:21.899Z,291
2022-08-28T17:35:05.281Z,289
2022-08-28T17:36:48.998Z,283
2022-08-28T17:38:32.376Z,281
2022-08-28T17:40:15.773Z,271
2022-08-28T17:41:59.179Z,261
2022-08-28T17:43:42.566Z,245
2022-08-28T17:45:25.961Z,229
2022-08-28T17:47:09.359Z,215
2022-08-28T17:48:52.764Z,201
2022-08-28T17:52:19.231Z,172
2022-08-28T17:54:02.620Z,155
2022-08-28T17:55:46.017Z,138
2022-08-28T17:57:29.411Z,120
2022-08-28T17:59:12.822Z,108
2022-08-28T18:00:56.215Z,95
2022-08-28T18:02:39.611Z,85
2022-08-28T18:04:23.009Z,76
2022-08-28T18:07:49.478Z,57
2022-08-28T18:09:32.873Z,47
2022-08-28T18:11:16.264Z,41
2022-08-28T18:12:59.675Z,35
2022-08-28T18:14:43.078Z,29
2022-08-28T18:16:26.469Z,24
2022-08-28T18:18:09.859Z,21
2022-08-28T18:19:53.258Z,16
2022-08-28T18:23:19.734Z,8
2022-08-28T18:25:03.133Z,7
2022-08-28T18:26:46.523Z,5
2022-08-28T18:28:29.911Z,4
2022-08-28T18:30:13.305Z,3
2022-08-28T18:31:56.712Z,2
2022-08-28T18:33:40.098Z,2
2022-08-28T18:35:23.485Z,2
2022-08-28T18:40:32.745Z,1
2022-08-28T18:42:16.136Z,1
2022-08-28T18:43:59.531Z,1
2022-08-28T18:45:42.937Z,1
2022-08-28T18:47:26.323Z,1
2022-08-28T18:49:09.729Z,1
2022-08-28T18:50:53.125Z,1
2022-08-28T18:52:36.518Z,1
2022-08-28T18:54:20.213Z,1
2022-08-28T18:56:03.617Z,1
2022-08-28T18:57:47.018Z,1
2022-08-28T18:59:30.408Z,1
2022-08-28T19:01:13.889Z,1
2022-08-28T19:02:57.199Z,7
2022-08-28T19:04:40.610Z,5
2022-08-28T19:06:23.999Z,7
2022-08-28T19:11:33.233Z,8
2022-08-28T19:13:16.630Z,7
2022-08-28T19:15:00.036Z,7
2022-08-28T19:16:43.447Z,7
2022-08-28T19:18:26.811Z,7
2022-08-28T19:20:10.217Z,7
2022-08-28T19:21:53.605Z,7
2022-08-28T19:23:37.013Z,7
2022-08-28T19:25:20.398Z,7
2022-08-28T19:28:46.874Z,6
2022-08-28T19:30:30.266Z,7
2022-08-28T19:32:13.662Z,7
2022-08-28T19:33:57.061Z,7
2022-08-28T19:35:40.470Z,7
2022-08-28T19:37:23.866Z,7
2022-08-28T19:39:07.249Z,7
2022-08-28T19:40:50.665Z,6
2022-08-28T19:44:17.126Z,7
2022-08-28T19:46:00.517Z,7
2022-08-28T19:47:43.928Z,7
2022-08-28T19:49:27.318Z,8
2022-08-28T19:51:10.709Z,7
2022-08-28T19:52:54.106Z,7
2022-08-28T19:54:37.510Z,8
2022-08-28T19:56:20.901Z,7
2022-08-28T20:01:30.154Z,7
2022-08-28T20:03:13.549Z,7
2022-08-28T20:04:56.945Z,7
2022-08-28T20:06:40.344Z,7
2022-08-28T20:08:23.741Z,7
2022-08-28T20:10:07.126Z,8
2022-08-28T20:11:50.521Z,8
2022-08-28T20:13:33.920Z,7
2022-08-28T20:15:17.625Z,7
2022-08-28T20:17:01.018Z,7
2022-08-28T20:18:44.426Z,7
2022-08-28T20:20:27.809Z,7
2022-08-28T20:22:11.215Z,7
2022-08-28T20:23:54.605Z,7
2022-08-28T20:25:38.022Z,7
2022-08-28T20:27:21.410Z,7
2022-08-28T20:30:47.867Z,7
2022-08-28T20:32:31.278Z,7
2022-08-28T20:34:14.662Z,8
2022-08-28T20:35:58.072Z,7
2022-08-28T20:37:41.464Z,7
2022-08-28T20:39:24.860Z,7
2022-08-28T20:41:08.261Z,7
2022-08-28T20:42:51.652Z,8
2022-08-28T20:48:00.893Z,8
2022-08-28T20:49:44.290Z,7
2022-08-28T20:51:27.679Z,8
2022-08-28T20:53:11.071Z,7
2022-08-28T20:54:54.476Z,7
2022-08-28T20:58:21.275Z,7
2022-08-28T21:00:04.658Z,7
2022-08-28T21:03:31.142Z,1
2022-08-28T21:05:14.543Z,1
2022-08-28T21:06:57.937Z,0
2022-08-28T21:08:41.334Z,1
2022-08-28T21:10:24.720Z,1
2022-08-28T21:12:08.139Z,6
2022-08-28T21:13:51.514Z,5
2022-08-28T21:15:34.924Z,4
2022-08-28T21:20:44.162Z,0
2022-08-28T21:22:27.545Z,1
2022-08-28T21:24:10.964Z,1
2022-08-28T21:25:54.343Z,1
2022-08-28T21:27:37.749Z,1
2022-08-28T21:29:21.159Z,1
2022-08-28T21:31:04.533Z,1
2022-08-28T21:32:47.930Z,1
2022-08-28T21:36:14.415Z,1
2022-08-28T21:37:57.834Z,0
2022-08-28T21:39:41.206Z,1
2022-08-28T21:41:24.597Z,1
2022-08-28T21:43:08.001Z,1
2022-08-28T21:44:51.405Z,1
2022-08-28T21:46:34.806Z,1
2022-08-28T21:48:18.182Z,1
2022-08-28T21:51:44.667Z,1
2022-08-28T21:53:28.053Z,1
2022-08-28T21:55:11.454Z,1
2022-08-28T21:56:54.847Z,1
2022-08-28T21:58:38.265Z,1
2022-08-28T22:00:21.649Z,1
2022-08-28T22:02:05.041Z,1
2022-08-28T22:03:48.436Z,1
2022-08-28T22:07:14.925Z,0
2022-08-28T22:08:58.305Z,1
2022-08-28T22:10:41.700Z,1
2022-08-28T22:12:25.104Z,1
2022-08-28T22:14:08.499Z,1
2022-08-28T22:15:51.905Z,1
2022-08-28T22:17:35.310Z,1
2022-08-28T22:19:18.691Z,1
2022-08-28T22:24:27.944Z,1
2022-08-28T22:26:11.332Z,1
2022-08-28T22:27:54.731Z,1
2022-08-28T22:29:38.129Z,1
2022-08-28T22:31:21.535Z,1
2022-08-28T22:33:04.916Z,1
2022-08-28T22:34:48.308Z,1
2022-08-28T22:36:31.713Z,1
2022-08-28T22:39:58.179Z,1
2022-08-28T22:41:41.591Z,1
2022-08-28T22:43:24.978Z,1
2022-08-28T22:45:08.386Z,1
2022-08-28T22:46:51.772Z,1
2022-08-28T22:48:35.164Z,1
2022-08-28T22:50:18.578Z,0
2022-08-28T22:52:01.971Z,0
2022-08-28T22:55:28.457Z,1
2022-08-28T22:57:11.837Z,1
2022-08-28T22:58:55.240Z,1
2022-08-28T23:00:38.649Z,1
2022-08-28T23:02:22.047Z,1
2022-08-28T23:04:05.426Z,2
2022-08-28T23:05:48.841Z,1
2022-08-28T23:07:32.220Z,1
2022-08-28T23:10:58.700Z,1
2022-08-28T23:12:42.105Z,0
2022-08-28T23:14:25.548Z,0
2022-08-28T23:16:08.887Z,1
2022-08-28T23:17:52.297Z,1
2022-08-28T23:19:35.675Z,1
2022-08-28T23:21:19.086Z,1
2022-08-28T23:23:02.482Z,1
2022-08-28T23:24:45.873Z,1
2022-08-28T23:26:29.572Z,1
2022-08-28T23:28:12.975Z,1
2022-08-28T23:29:56.371Z,1
2022-08-28T23:31:39.773Z,0
2022-08-28T23:33:23.163Z,1
2022-08-28T23:35:06.598Z,1
2022-08-28T23:36:50.002Z,1
2022-08-28T23:38:33.400Z,1
2022-08-28T23:43:42.588Z,1
2022-08-28T23:45:26.033Z,1
2022-08-28T23:47:09.383Z,0
2022-08-28T23:48:52.781Z,1
2022-08-28T23:50:36.183Z,1
2022-08-28T23:52:19.597Z,1
2022-08-28T23:54:03.262Z,1
2022-08-28T23:55:46.409Z,1
